createdAt,value
2023-01-23T00:01:48.655Z,95.27
2023-01-23T00:04:20.687Z,96.23
2023-01-23T00:06:51.777Z,95.42
2023-01-23T00:09:19.975Z,96.00
2023-01-23T00:11:47.851Z,96.32
2023-01-23T00:14:15.773Z,96.55
2023-01-23T00:16:44.004Z,96.77
2023-01-23T00:19:14.983Z,96.63
2023-01-23T00:21:43.209Z,96.11
2023-01-23T00:24:12.673Z,96.61
2023-01-23T00:26:40.840Z,96.93
2023-01-23T00:29:09.224Z,95.93
2023-01-23T00:31:39.559Z,96.00
2023-01-23T00:34:15.174Z,96.11
2023-01-23T00:36:45.173Z,96.66
2023-01-23T00:39:18.510Z,96.96
2023-01-23T00:41:48.307Z,96.90
2023-01-23T00:44:16.856Z,97.00
2023-01-23T00:46:44.778Z,96.98
2023-01-23T00:49:13.208Z,96.67
2023-01-23T00:51:41.319Z,96.93
2023-01-23T00:54:09.238Z,96.11
2023-01-23T00:56:37.464Z,96.09
2023-01-23T00:59:05.331Z,95.88
2023-01-23T01:01:34.082Z,96.08
2023-01-23T01:04:02.534Z,96.43
2023-01-23T01:06:30.711Z,96.54
2023-01-23T01:09:02.265Z,96.26
2023-01-23T01:11:30.530Z,96.22
2023-01-23T01:13:59.881Z,96.47
2023-01-23T01:16:27.866Z,96.31
2023-01-23T01:18:58.832Z,96.15
2023-01-23T01:21:26.501Z,96.08
2023-01-23T01:23:55.083Z,96.09
2023-01-23T01:26:23.441Z,96.32
2023-01-23T01:28:51.558Z,96.97
2023-01-23T01:31:19.474Z,96.40
2023-01-23T01:33:48.523Z,95.98
2023-01-23T01:36:20.221Z,95.98
2023-01-23T01:38:49.163Z,96.18
2023-01-23T01:41:17.798Z,96.78
2023-01-23T01:43:46.060Z,97.00
2023-01-23T01:46:17.184Z,96.87
2023-01-23T01:48:49.222Z,96.13
2023-01-23T01:51:41.390Z,95.86
2023-01-23T01:54:54.540Z,96.71
2023-01-23T01:57:30.863Z,96.38
2023-01-23T02:00:15.928Z,96.35
2023-01-23T02:02:59.260Z,95.67
2023-01-23T02:05:31.363Z,95.99
2023-01-23T02:08:13.567Z,96.53
2023-01-23T02:10:42.569Z,96.42
2023-01-23T02:13:21.552Z,96.37
2023-01-23T02:15:52.592Z,95.95
2023-01-23T02:18:22.087Z,95.97
2023-01-23T02:20:52.651Z,95.46
2023-01-23T02:23:57.188Z,95.39
2023-01-23T02:26:51.167Z,95.76
2023-01-23T02:29:20.598Z,94.89
2023-01-23T02:31:53.932Z,95.71
2023-01-23T02:34:24.169Z,96.14
2023-01-23T02:36:52.074Z,95.91
2023-01-23T02:39:20.926Z,96.28
2023-01-23T02:41:52.154Z,96.28
2023-01-23T02:44:32.269Z,96.25
2023-01-23T02:47:12.315Z,96.00
2023-01-23T02:49:43.024Z,95.65
2023-01-23T02:52:11.611Z,96.06
2023-01-23T02:54:40.944Z,96.35
2023-01-23T02:57:09.226Z,95.90
2023-01-23T02:59:56.284Z,95.36
2023-01-23T03:02:28.643Z,95.53
2023-01-23T03:04:57.008Z,96.18
2023-01-23T03:07:28.005Z,96.05
2023-01-23T03:09:56.171Z,95.74
2023-01-23T03:12:23.894Z,96.03
2023-01-23T03:14:55.611Z,96.36
2023-01-23T03:17:23.798Z,96.51
2023-01-23T03:19:57.914Z,96.67
2023-01-23T03:22:26.891Z,96.75
2023-01-23T03:24:54.712Z,96.81
2023-01-23T03:27:25.859Z,96.60
2023-01-23T03:30:12.706Z,96.74
2023-01-23T03:32:44.843Z,96.79
2023-01-23T03:35:16.872Z,96.39
2023-01-23T03:37:45.244Z,96.51
2023-01-23T03:40:42.239Z,96.54
2023-01-23T03:43:13.173Z,96.17
2023-01-23T03:45:42.353Z,95.92
2023-01-23T03:48:10.205Z,96.06
2023-01-23T03:50:38.077Z,96.13
2023-01-23T03:53:09.451Z,95.96
2023-01-23T03:55:41.307Z,96.66
2023-01-23T03:58:09.486Z,96.51
2023-01-23T04:00:37.683Z,96.58
2023-01-23T04:03:06.435Z,96.76
2023-01-23T04:05:35.270Z,96.72
2023-01-23T04:08:03.543Z,96.63
2023-01-23T04:10:31.954Z,96.00
2023-01-23T04:13:00.785Z,96.25
2023-01-23T04:15:29.018Z,96.73
2023-01-23T04:17:57.808Z,97.21
2023-01-23T04:20:26.030Z,97.08
2023-01-23T04:22:54.322Z,97.36
2023-01-23T04:25:23.043Z,97.07
2023-01-23T04:27:50.880Z,97.11
2023-01-23T04:30:19.172Z,97.34
2023-01-23T04:32:47.946Z,96.65
2023-01-23T04:35:16.142Z,96.80
2023-01-23T04:37:47.488Z,96.24
2023-01-23T04:40:15.939Z,96.62
2023-01-23T04:42:44.885Z,96.49
2023-01-23T04:45:13.112Z,96.61
2023-01-23T04:47:44.652Z,96.94
2023-01-23T04:50:14.077Z,96.63
2023-01-23T04:52:48.190Z,95.89
2023-01-23T04:55:16.227Z,95.85
2023-01-23T04:57:44.684Z,96.52
2023-01-23T05:00:14.058Z,96.70
2023-01-23T05:02:42.151Z,96.87
2023-01-23T05:05:10.852Z,96.39
2023-01-23T05:07:42.193Z,96.42
2023-01-23T05:10:11.605Z,96.05
2023-01-23T05:12:43.159Z,96.15
2023-01-23T05:15:12.513Z,96.15
2023-01-23T05:17:40.874Z,95.82
2023-01-23T05:20:12.313Z,95.86
2023-01-23T05:22:53.127Z,95.34
2023-01-23T05:25:28.988Z,95.74
2023-01-23T05:27:57.972Z,96.01
2023-01-23T05:30:27.033Z,96.05
2023-01-23T05:32:59.353Z,96.44
2023-01-23T05:35:28.260Z,96.53
2023-01-23T05:37:56.129Z,96.25
2023-01-23T05:40:25.181Z,96.32
2023-01-23T05:42:56.419Z,95.85
2023-01-23T05:45:26.410Z,95.65
2023-01-23T05:47:56.090Z,96.25
2023-01-23T05:50:25.071Z,96.26
2023-01-23T05:52:54.604Z,95.25
2023-01-23T05:55:23.410Z,95.02
2023-01-23T05:57:51.695Z,95.26
2023-01-23T06:00:23.128Z,95.13
2023-01-23T06:02:54.078Z,95.25
2023-01-23T06:05:23.715Z,95.04
2023-01-23T06:07:52.981Z,94.74
2023-01-23T06:10:21.064Z,95.69
2023-01-23T06:12:49.695Z,95.77
2023-01-23T06:15:22.028Z,96.30
2023-01-23T06:17:54.394Z,96.25
2023-01-23T06:20:23.127Z,96.22
2023-01-23T06:22:51.218Z,96.68
2023-01-23T06:25:21.449Z,96.04
2023-01-23T06:27:50.154Z,94.58
2023-01-23T06:30:18.967Z,92.76
2023-01-23T06:32:47.225Z,91.16
2023-01-23T06:35:17.416Z,91.46
2023-01-23T06:37:45.855Z,91.30
2023-01-23T06:40:15.645Z,90.94
2023-01-23T06:42:45.678Z,90.56
2023-01-23T06:45:13.900Z,91.35
2023-01-23T06:47:41.974Z,92.40
2023-01-23T06:50:10.778Z,92.22
2023-01-23T06:52:41.371Z,90.80
2023-01-23T06:55:10.777Z,92.34
2023-01-23T06:57:41.834Z,91.49
2023-01-23T07:00:11.555Z,92.29
2023-01-23T07:02:45.553Z,91.23
2023-01-23T07:05:14.903Z,91.56
2023-01-23T07:07:48.626Z,89.08
2023-01-23T07:10:20.221Z,88.08
2023-01-23T07:12:51.917Z,87.96
2023-01-23T07:15:20.357Z,88.69
2023-01-23T07:17:51.410Z,86.97
2023-01-23T07:20:21.856Z,85.92
2023-01-23T07:22:52.190Z,85.82
2023-01-23T07:25:22.012Z,85.73
2023-01-23T07:27:53.417Z,86.28
2023-01-23T07:30:22.445Z,85.92
2023-01-23T07:32:54.566Z,86.53
2023-01-23T07:35:25.160Z,83.66
2023-01-23T07:37:56.266Z,83.69
2023-01-23T07:40:26.089Z,83.67
2023-01-23T07:42:58.532Z,85.35
2023-01-23T07:45:28.815Z,83.71
2023-01-23T07:47:58.506Z,83.23
2023-01-23T07:50:27.243Z,83.12
2023-01-23T07:52:56.920Z,82.69
2023-01-23T07:55:27.367Z,83.79
2023-01-23T07:57:58.108Z,84.18
2023-01-23T08:00:30.775Z,83.19
2023-01-23T08:03:03.919Z,83.21
2023-01-23T08:05:34.095Z,83.99
2023-01-23T08:08:13.069Z,85.00
2023-01-23T08:10:48.321Z,86.05
2023-01-23T08:13:18.844Z,86.02
2023-01-23T08:15:48.808Z,85.92
2023-01-23T08:18:19.132Z,84.05
2023-01-23T08:20:55.420Z,82.70
2023-01-23T08:23:27.237Z,82.10
2023-01-23T08:25:59.906Z,81.32
2023-01-23T08:28:29.936Z,82.67
2023-01-23T08:31:06.580Z,81.78
2023-01-23T08:33:36.235Z,80.95
2023-01-23T08:36:06.651Z,79.54
2023-01-23T08:38:36.993Z,80.05
2023-01-23T08:41:06.767Z,79.69
2023-01-23T08:43:37.307Z,79.47
2023-01-23T08:46:08.707Z,80.08
2023-01-23T08:48:41.609Z,81.01
2023-01-23T08:51:15.701Z,79.37
2023-01-23T08:53:45.671Z,80.34
2023-01-23T08:56:20.075Z,80.80
2023-01-23T08:58:48.544Z,80.71
2023-01-23T09:01:24.826Z,81.48
2023-01-23T09:03:54.812Z,78.85
2023-01-23T09:06:25.756Z,78.76
2023-01-23T09:08:55.677Z,81.35
2023-01-23T09:11:24.566Z,77.96
2023-01-23T09:13:54.091Z,79.18
2023-01-23T09:16:26.153Z,79.29
2023-01-23T09:18:56.773Z,78.70
2023-01-23T09:21:28.711Z,82.10
2023-01-23T09:24:00.897Z,79.29
2023-01-23T09:26:30.573Z,79.92
2023-01-23T09:29:03.838Z,79.29
2023-01-23T09:31:38.401Z,80.01
2023-01-23T09:34:09.992Z,80.30
2023-01-23T09:36:44.045Z,80.52
2023-01-23T09:39:13.813Z,79.88
2023-01-23T09:41:46.967Z,80.18
2023-01-23T09:44:40.077Z,80.06
2023-01-23T09:47:37.343Z,80.78
2023-01-23T09:50:25.717Z,79.86
2023-01-23T09:53:25.781Z,80.41
2023-01-23T09:56:16.744Z,81.60
2023-01-23T09:58:57.768Z,79.01
2023-01-23T10:01:34.034Z,80.56
2023-01-23T10:04:05.581Z,80.46
2023-01-23T10:07:07.802Z,79.88
2023-01-23T10:10:19.272Z,80.26
2023-01-23T10:13:04.272Z,79.61
2023-01-23T10:15:34.038Z,79.88
2023-01-23T10:18:20.832Z,80.79
2023-01-23T10:20:55.113Z,79.53
2023-01-23T10:23:25.785Z,80.52
2023-01-23T10:25:57.367Z,79.17
2023-01-23T10:28:40.107Z,79.36
2023-01-23T10:31:38.578Z,79.36
2023-01-23T10:34:12.344Z,81.22
2023-01-23T10:37:15.551Z,79.55
2023-01-23T10:40:04.532Z,79.56
2023-01-23T10:42:35.708Z,79.70
2023-01-23T10:45:08.317Z,80.09
2023-01-23T10:47:55.077Z,79.80
2023-01-23T10:50:38.710Z,79.18
2023-01-23T10:53:11.202Z,79.72
2023-01-23T10:55:49.016Z,79.06
2023-01-23T10:58:36.682Z,79.21
2023-01-23T11:01:06.484Z,80.18
2023-01-23T11:03:37.122Z,80.17
2023-01-23T11:06:17.397Z,79.41
2023-01-23T11:08:58.962Z,80.58
2023-01-23T11:11:39.615Z,80.69
2023-01-23T11:14:14.156Z,78.60
2023-01-23T11:16:44.201Z,78.96
2023-01-23T11:19:25.777Z,79.08
2023-01-23T11:22:03.407Z,79.83
2023-01-23T11:24:41.644Z,79.11
2023-01-23T11:27:19.234Z,78.88
2023-01-23T11:30:08.296Z,79.16
2023-01-23T11:33:06.103Z,79.65
2023-01-23T11:35:53.087Z,79.81
2023-01-23T11:38:30.741Z,79.43
2023-01-23T11:41:02.972Z,80.30
2023-01-23T11:43:32.575Z,81.11
2023-01-23T11:46:42.830Z,82.44
2023-01-23T11:49:38.451Z,81.84
2023-01-23T11:52:26.730Z,79.73
2023-01-23T11:55:07.145Z,81.22
2023-01-23T11:57:43.014Z,83.26
2023-01-23T12:00:41.315Z,82.83
2023-01-23T12:03:39.561Z,81.81
2023-01-23T12:06:20.797Z,82.38
2023-01-23T12:08:54.388Z,80.37
2023-01-23T12:11:25.889Z,81.61
2023-01-23T12:14:09.278Z,80.33
2023-01-23T12:16:49.760Z,82.51
2023-01-23T12:19:45.499Z,82.25
2023-01-23T12:22:28.856Z,84.17
2023-01-23T12:25:27.330Z,83.13
2023-01-23T12:28:02.019Z,80.70
2023-01-23T12:30:54.344Z,80.34
2023-01-23T12:33:25.042Z,81.12
2023-01-23T12:36:31.379Z,81.74
2023-01-23T12:39:15.908Z,82.04
2023-01-23T12:41:55.663Z,83.44
2023-01-23T12:45:01.075Z,82.28
2023-01-23T12:47:51.613Z,81.61
2023-01-23T12:50:51.548Z,81.47
2023-01-23T12:53:26.958Z,82.69
2023-01-23T12:56:18.795Z,81.73
2023-01-23T12:59:29.562Z,82.08
2023-01-23T13:02:31.033Z,83.38
2023-01-23T13:05:20.492Z,82.03
2023-01-23T13:08:05.654Z,81.93
2023-01-23T13:11:21.858Z,82.39
2023-01-23T13:13:54.758Z,81.94
2023-01-23T13:16:31.527Z,81.45
2023-01-23T13:19:40.814Z,82.91
2023-01-23T13:22:41.981Z,82.24
2023-01-23T13:25:21.473Z,83.89
2023-01-23T13:27:53.251Z,83.76
2023-01-23T13:30:25.453Z,83.10
2023-01-23T13:33:16.153Z,83.57
2023-01-23T13:35:54.903Z,86.63
2023-01-23T13:38:38.387Z,84.05
2023-01-23T13:41:20.385Z,87.32
2023-01-23T13:44:06.431Z,90.37
2023-01-23T14:30:36.005Z,89.23
2023-01-23T14:33:20.803Z,89.87
2023-01-23T14:35:52.267Z,90.18
2023-01-23T14:38:35.058Z,91.07
2023-01-23T14:41:10.526Z,91.32
2023-01-23T14:43:41.953Z,91.76
2023-01-23T14:46:27.131Z,91.06
2023-01-23T14:49:00.781Z,90.52
2023-01-23T14:51:33.848Z,90.05
2023-01-23T14:54:23.389Z,89.93
2023-01-23T14:56:56.686Z,89.97
2023-01-23T14:59:37.543Z,89.76
2023-01-23T15:02:38.428Z,89.80
2023-01-23T15:05:14.118Z,89.82
2023-01-23T15:07:46.909Z,90.08
2023-01-23T15:10:24.219Z,90.66
2023-01-23T15:13:03.129Z,90.92
2023-01-23T15:15:45.959Z,90.45
2023-01-23T15:18:28.004Z,90.32
2023-01-23T15:21:13.236Z,90.71
2023-01-23T15:24:09.037Z,90.97
2023-01-23T15:27:07.203Z,90.77
2023-01-23T15:29:37.010Z,90.62
2023-01-23T15:32:24.138Z,90.89
2023-01-23T15:35:01.166Z,90.78
2023-01-23T15:37:37.725Z,90.81
2023-01-23T15:40:17.354Z,90.89
2023-01-23T15:43:08.888Z,91.13
2023-01-23T15:45:40.525Z,91.26
2023-01-23T15:48:11.918Z,91.68
2023-01-23T15:50:41.239Z,92.07
2023-01-23T15:53:16.665Z,91.67
2023-01-23T15:55:46.960Z,91.38
2023-01-23T15:58:19.930Z,91.90
2023-01-23T16:00:48.036Z,89.86
2023-01-23T16:03:17.551Z,91.72
2023-01-23T16:05:46.496Z,92.10
2023-01-23T16:08:25.732Z,92.67
2023-01-23T16:11:00.137Z,92.40
2023-01-23T16:13:29.905Z,92.18
2023-01-23T16:16:03.510Z,92.73
2023-01-23T16:18:32.769Z,92.91
2023-01-23T16:21:04.582Z,91.86
2023-01-23T16:23:46.667Z,91.08
2023-01-23T16:26:26.509Z,90.92
2023-01-23T16:29:12.856Z,90.60
2023-01-23T16:31:46.183Z,90.63
2023-01-23T16:34:23.004Z,90.59
2023-01-23T16:36:59.857Z,90.56
2023-01-23T16:39:33.517Z,90.89
2023-01-23T16:42:07.797Z,91.68
2023-01-23T16:44:38.609Z,92.13
2023-01-23T16:47:16.384Z,92.41
2023-01-23T16:49:54.654Z,92.25
2023-01-23T16:52:28.900Z,93.26
2023-01-23T16:54:58.839Z,92.20
2023-01-23T16:57:35.482Z,91.44
2023-01-23T17:00:06.672Z,91.06
2023-01-23T17:02:36.693Z,90.67
2023-01-23T17:05:12.383Z,91.20
2023-01-23T17:07:56.659Z,91.34
2023-01-23T17:10:45.282Z,92.77
2023-01-23T17:13:22.870Z,92.60
2023-01-23T17:15:57.347Z,93.59
2023-01-23T17:18:32.005Z,93.50
2023-01-23T17:21:03.228Z,92.98
2023-01-23T17:23:34.979Z,92.35
2023-01-23T17:26:06.383Z,92.95
2023-01-23T17:28:35.565Z,92.72
2023-01-23T17:31:06.842Z,92.74
2023-01-23T17:33:41.585Z,92.16
2023-01-23T17:36:16.253Z,92.16
2023-01-23T17:38:50.074Z,93.10
2023-01-23T17:41:20.973Z,92.58
2023-01-23T17:43:58.101Z,91.94
2023-01-23T17:46:33.823Z,92.82
2023-01-23T17:49:10.057Z,94.15
2023-01-23T17:51:41.107Z,91.80
2023-01-23T17:54:21.317Z,94.45
2023-01-23T17:56:54.268Z,93.40
2023-01-23T17:59:29.228Z,91.59
2023-01-23T18:02:04.466Z,91.53
2023-01-23T18:04:37.313Z,95.76
2023-01-23T18:07:11.122Z,91.96
2023-01-23T18:09:45.530Z,91.53
2023-01-23T18:12:29.304Z,91.62
2023-01-23T18:15:18.109Z,91.71
2023-01-23T18:18:07.935Z,90.43
2023-01-23T18:20:42.331Z,91.32
2023-01-23T18:23:29.564Z,91.79
2023-01-23T18:26:27.650Z,92.54
2023-01-23T18:29:18.693Z,93.04
2023-01-23T18:32:02.990Z,92.74
2023-01-23T18:35:18.724Z,92.69
2023-01-23T18:38:06.305Z,92.24
2023-01-23T18:40:53.555Z,92.08
2023-01-23T18:43:40.335Z,92.04
2023-01-23T18:46:21.206Z,92.41
2023-01-23T18:48:52.040Z,92.69
2023-01-23T18:51:37.238Z,92.58
2023-01-23T18:54:26.885Z,92.52
2023-01-23T18:57:20.132Z,92.53
2023-01-23T19:00:20.956Z,92.77
2023-01-23T19:02:57.571Z,92.58
2023-01-23T19:05:34.597Z,92.30
2023-01-23T19:08:08.662Z,91.67
2023-01-23T19:10:49.223Z,91.22
2023-01-23T19:13:46.696Z,90.68
2023-01-23T19:16:38.496Z,90.78
2023-01-23T19:19:42.407Z,91.13
2023-01-23T19:22:19.485Z,91.18
2023-01-23T19:24:50.672Z,91.41
2023-01-23T19:27:23.598Z,91.20
2023-01-23T19:29:53.603Z,90.96
2023-01-23T19:32:28.865Z,90.81
2023-01-23T19:35:12.467Z,90.88
2023-01-23T19:37:45.635Z,91.15
2023-01-23T19:40:18.490Z,91.17
2023-01-23T19:42:58.600Z,91.34
2023-01-23T19:45:37.956Z,91.04
2023-01-23T19:48:12.957Z,92.03
2023-01-23T19:50:46.719Z,92.39
2023-01-23T19:53:22.288Z,92.30
2023-01-23T19:55:52.532Z,92.39
2023-01-23T19:58:23.814Z,92.47
2023-01-23T20:00:53.457Z,92.85
2023-01-23T20:03:25.224Z,93.12
2023-01-23T20:05:56.923Z,93.08
2023-01-23T20:08:27.653Z,92.83
2023-01-23T20:10:57.293Z,93.13
2023-01-23T20:13:26.045Z,93.12
2023-01-23T20:15:54.568Z,92.88
2023-01-23T20:18:23.615Z,92.82
2023-01-23T20:21:00.779Z,92.92
2023-01-23T20:23:29.659Z,92.50
2023-01-23T20:26:02.979Z,92.98
2023-01-23T20:28:31.477Z,92.68
2023-01-23T20:31:05.260Z,92.79
2023-01-23T20:33:33.911Z,92.98
2023-01-23T20:36:03.699Z,93.20
2023-01-23T20:38:32.264Z,93.15
2023-01-23T20:41:06.991Z,93.31
2023-01-23T20:43:35.775Z,93.35
2023-01-23T20:46:08.553Z,93.43
2023-01-23T20:48:47.326Z,93.15
2023-01-23T20:51:16.811Z,93.17
2023-01-23T20:53:46.012Z,93.41
2023-01-23T20:56:29.864Z,93.37
2023-01-23T20:59:16.890Z,93.54
2023-01-23T21:02:06.395Z,93.59
2023-01-23T21:04:37.197Z,93.66
2023-01-23T21:07:05.793Z,93.78
2023-01-23T21:09:37.317Z,93.79
2023-01-23T21:12:05.351Z,93.62
2023-01-23T21:14:33.470Z,93.51
2023-01-23T21:17:02.307Z,93.71
2023-01-23T21:19:34.415Z,93.79
2023-01-23T21:22:06.617Z,93.54
2023-01-23T21:24:36.682Z,93.49
2023-01-23T21:27:06.607Z,93.50
2023-01-23T21:29:34.810Z,93.60
2023-01-23T21:32:02.835Z,93.73
2023-01-23T21:34:31.021Z,93.87
2023-01-23T21:36:59.144Z,93.72
2023-01-23T21:39:26.984Z,93.64
2023-01-23T21:41:55.171Z,93.68
2023-01-23T21:44:26.151Z,93.84
2023-01-23T21:46:57.101Z,93.71
2023-01-23T21:49:25.339Z,93.77
2023-01-23T21:51:53.180Z,93.87
2023-01-23T21:54:21.029Z,94.04
2023-01-23T21:56:49.203Z,93.81
2023-01-23T21:59:16.945Z,93.91
2023-01-23T22:01:46.030Z,93.71
2023-01-23T22:04:22.689Z,93.45
2023-01-23T22:06:56.428Z,93.53
2023-01-23T22:09:26.029Z,93.41
2023-01-23T22:11:55.232Z,93.04
2023-01-23T22:14:23.204Z,93.02
2023-01-23T22:16:51.561Z,92.96
2023-01-23T22:19:24.940Z,93.65
2023-01-23T22:21:57.654Z,93.25
2023-01-23T22:24:25.754Z,93.60
2023-01-23T22:26:56.423Z,93.60
2023-01-23T22:29:27.383Z,93.34
2023-01-23T22:31:55.328Z,93.32
2023-01-23T22:34:26.303Z,93.04
2023-01-23T22:36:54.560Z,93.00
2023-01-23T22:39:22.472Z,92.98
2023-01-23T22:41:52.993Z,92.74
2023-01-23T22:44:21.232Z,93.04
2023-01-23T22:46:51.157Z,93.08
2023-01-23T22:49:19.025Z,93.03
2023-01-23T22:51:47.363Z,93.03
2023-01-23T22:54:18.172Z,93.08
2023-01-23T22:56:45.914Z,93.11
2023-01-23T22:59:14.253Z,93.06
2023-01-23T23:01:44.856Z,93.33
2023-01-23T23:04:12.738Z,93.39
2023-01-23T23:06:44.018Z,93.61
2023-01-23T23:09:11.884Z,93.97
2023-01-23T23:11:41.165Z,94.21
2023-01-23T23:14:11.296Z,94.15
2023-01-23T23:16:42.328Z,94.17
2023-01-23T23:19:10.684Z,94.20
2023-01-23T23:21:38.696Z,94.27
2023-01-23T23:24:08.334Z,94.47
2023-01-23T23:26:36.619Z,94.42
2023-01-23T23:29:05.393Z,94.16
2023-01-23T23:31:33.371Z,94.19
2023-01-23T23:34:01.785Z,94.26
2023-01-23T23:36:33.438Z,94.58
2023-01-23T23:39:05.109Z,94.50
2023-01-23T23:41:32.935Z,94.15
2023-01-23T23:44:01.126Z,93.86
2023-01-23T23:46:29.059Z,94.39
2023-01-23T23:48:57.210Z,93.96
2023-01-23T23:51:26.878Z,94.20
2023-01-23T23:53:57.956Z,94.50
2023-01-23T23:56:28.481Z,94.46
2023-01-23T23:58:56.791Z,94.23
